sensor_id;sensor_type;location;lat;lon;timestamp;temperature;humidity
10903;DHT22;5504;47.312;11.060;2023-04-01T00:02:00;7.40;94.20
10903;DHT22;5504;47.312;11.060;2023-04-01T00:04:26;7.40;94.00
10903;DHT22;5504;47.312;11.060;2023-04-01T00:06:51;7.40;94.00
10903;DHT22;5504;47.312;11.060;2023-04-01T00:09:17;7.30;94.20
10903;DHT22;5504;47.312;11.060;2023-04-01T00:11:43;7.30;94.30
10903;DHT22;5504;47.312;11.060;2023-04-01T00:14:11;7.20;94.30
10903;DHT22;5504;47.312;11.060;2023-04-01T00:16:37;7.20;94.40
10903;DHT22;5504;47.312;11.060;2023-04-01T00:19:03;7.30;94.20
10903;DHT22;5504;47.312;11.060;2023-04-01T00:21:28;7.10;94.00
10903;DHT22;5504;47.312;11.060;2023-04-01T00:23:54;7.10;94.20
10903;DHT22;5504;47.312;11.060;2023-04-01T00:26:20;7.10;94.30
10903;DHT22;5504;47.312;11.060;2023-04-01T00:28:47;7.00;94.30
10903;DHT22;5504;47.312;11.060;2023-04-01T00:31:13;6.90;94.50
10903;DHT22;5504;47.312;11.060;2023-04-01T00:33:40;6.90;94.70
10903;DHT22;5504;47.312;11.060;2023-04-01T00:38:34;7.10;94.50
10903;DHT22;5504;47.312;11.060;2023-04-01T00:41:00;7.10;94.20
10903;DHT22;5504;47.312;11.060;2023-04-01T00:43:26;7.10;94.40
10903;DHT22;5504;47.312;11.060;2023-04-01T00:45:51;6.90;94.40
10903;DHT22;5504;47.312;11.060;2023-04-01T00:48:23;7.00;94.80
10903;DHT22;5504;47.312;11.060;2023-04-01T00:51:06;7.00;94.80
10903;DHT22;5504;47.312;11.060;2023-04-01T00:53:35;7.10;94.60
10903;DHT22;5504;47.312;11.060;2023-04-01T00:56:10;7.00;94.30
10903;DHT22;5504;47.312;11.060;2023-04-01T00:58:41;6.80;94.80
10903;DHT22;5504;47.312;11.060;2023-04-01T01:01:08;6.90;94.80
10903;DHT22;5504;47.312;11.060;2023-04-01T01:03:36;7.00;94.60
10903;DHT22;5504;47.312;11.060;2023-04-01T01:06:30;7.00;94.50
10903;DHT22;5504;47.312;11.060;2023-04-01T01:09:29;7.00;94.40
10903;DHT22;5504;47.312;11.060;2023-04-01T01:12:21;6.90;94.40
10903;DHT22;5504;47.312;11.060;2023-04-01T01:31:53;6.90;95.50
10903;DHT22;5504;47.312;11.060;2023-04-01T01:36:37;7.00;94.90
10903;DHT22;5504;47.312;11.060;2023-04-01T01:39:06;7.00;94.80
10903;DHT22;5504;47.312;11.060;2023-04-01T01:41:34;7.10;94.60
10903;DHT22;5504;47.312;11.060;2023-04-01T01:44:02;6.90;94.50
10903;DHT22;5504;47.312;11.060;2023-04-01T01:46:30;6.70;94.90
10903;DHT22;5504;47.312;11.060;2023-04-01T01:48:57;6.50;95.60
10903;DHT22;5504;47.312;11.060;2023-04-01T01:51:27;6.60;95.80
10903;DHT22;5504;47.312;11.060;2023-04-01T01:53:53;6.70;95.80
10903;DHT22;5504;47.312;11.060;2023-04-01T01:56:23;6.70;95.60
10903;DHT22;5504;47.312;11.060;2023-04-01T01:58:52;6.60;95.50
10903;DHT22;5504;47.312;11.060;2023-04-01T02:01:25;6.70;95.70
10903;DHT22;5504;47.312;11.060;2023-04-01T02:03:53;6.80;95.60
10903;DHT22;5504;47.312;11.060;2023-04-01T02:06:22;6.90;95.70
10903;DHT22;5504;47.312;11.060;2023-04-01T02:08:59;7.00;95.00
10903;DHT22;5504;47.312;11.060;2023-04-01T02:11:52;7.00;94.80
10903;DHT22;5504;47.312;11.060;2023-04-01T02:14:17;7.10;95.00
10903;DHT22;5504;47.312;11.060;2023-04-01T02:19:23;7.00;95.00
10903;DHT22;5504;47.312;11.060;2023-04-01T02:21:55;7.00;94.80
10903;DHT22;5504;47.312;11.060;2023-04-01T02:24:24;7.00;94.80
10903;DHT22;5504;47.312;11.060;2023-04-01T02:26:52;6.90;94.90
10903;DHT22;5504;47.312;11.060;2023-04-01T02:29:22;6.90;95.10
10903;DHT22;5504;47.312;11.060;2023-04-01T02:31:49;7.00;95.00
10903;DHT22;5504;47.312;11.060;2023-04-01T02:34:16;7.10;94.70
10903;DHT22;5504;47.312;11.060;2023-04-01T02:36:42;7.20;94.50
10903;DHT22;5504;47.312;11.060;2023-04-01T02:39:08;7.20;94.50
10903;DHT22;5504;47.312;11.060;2023-04-01T02:41:39;7.00;94.40
10903;DHT22;5504;47.312;11.060;2023-04-01T02:44:06;7.10;94.60
10903;DHT22;5504;47.312;11.060;2023-04-01T02:46:32;7.10;94.70
10903;DHT22;5504;47.312;11.060;2023-04-01T02:48:58;7.20;94.60
10903;DHT22;5504;47.312;11.060;2023-04-01T02:51:25;7.20;94.50
10903;DHT22;5504;47.312;11.060;2023-04-01T02:53:50;7.20;94.40
10903;DHT22;5504;47.312;11.060;2023-04-01T02:56:16;7.20;94.40
10903;DHT22;5504;47.312;11.060;2023-04-01T02:58:42;7.20;94.50
10903;DHT22;5504;47.312;11.060;2023-04-01T03:01:08;7.30;94.40
10903;DHT22;5504;47.312;11.060;2023-04-01T03:03:34;7.20;94.40
10903;DHT22;5504;47.312;11.060;2023-04-01T03:06:05;7.10;94.50
10903;DHT22;5504;47.312;11.060;2023-04-01T03:08:31;7.10;94.80
10903;DHT22;5504;47.312;11.060;2023-04-01T03:10:57;7.10;94.70
10903;DHT22;5504;47.312;11.060;2023-04-01T03:13:22;7.20;94.90
10903;DHT22;5504;47.312;11.060;2023-04-01T03:15:48;7.20;94.60
10903;DHT22;5504;47.312;11.060;2023-04-01T03:18:14;7.20;94.90
10903;DHT22;5504;47.312;11.060;2023-04-01T03:20:39;7.30;94.70
10903;DHT22;5504;47.312;11.060;2023-04-01T03:23:05;7.30;94.40
10903;DHT22;5504;47.312;11.060;2023-04-01T03:25:31;7.10;94.50
10903;DHT22;5504;47.312;11.060;2023-04-01T03:27:56;7.20;94.60
10903;DHT22;5504;47.312;11.060;2023-04-01T03:30:25;7.20;94.70
10903;DHT22;5504;47.312;11.060;2023-04-01T03:32:51;7.20;94.60
10903;DHT22;5504;47.312;11.060;2023-04-01T03:35:17;7.10;94.60
10903;DHT22;5504;47.312;11.060;2023-04-01T03:37:43;7.10;94.50
10903;DHT22;5504;47.312;11.060;2023-04-01T03:40:09;7.10;94.80
10903;DHT22;5504;47.312;11.060;2023-04-01T03:42:35;7.20;94.90
10903;DHT22;5504;47.312;11.060;2023-04-01T03:45:02;7.20;94.60
10903;DHT22;5504;47.312;11.060;2023-04-01T03:47:28;7.20;94.50
10903;DHT22;5504;47.312;11.060;2023-04-01T03:49:54;7.30;94.50
10903;DHT22;5504;47.312;11.060;2023-04-01T03:52:20;7.30;94.30
10903;DHT22;5504;47.312;11.060;2023-04-01T03:54:45;7.30;94.30
10903;DHT22;5504;47.312;11.060;2023-04-01T03:57:11;7.30;94.50
10903;DHT22;5504;47.312;11.060;2023-04-01T03:59:37;7.30;94.30
10903;DHT22;5504;47.312;11.060;2023-04-01T04:02:03;7.20;94.40
10903;DHT22;5504;47.312;11.060;2023-04-01T04:04:29;7.10;94.50
10903;DHT22;5504;47.312;11.060;2023-04-01T04:06:55;7.00;94.70
10903;DHT22;5504;47.312;11.060;2023-04-01T04:09:21;7.10;95.00
10903;DHT22;5504;47.312;11.060;2023-04-01T04:11:48;7.10;95.00
10903;DHT22;5504;47.312;11.060;2023-04-01T04:14:13;7.10;95.10
10903;DHT22;5504;47.312;11.060;2023-04-01T04:16:39;7.00;95.00
10903;DHT22;5504;47.312;11.060;2023-04-01T04:19:05;7.10;95.30
10903;DHT22;5504;47.312;11.060;2023-04-01T04:21:31;7.10;95.30
10903;DHT22;5504;47.312;11.060;2023-04-01T04:23:59;7.10;95.40
10903;DHT22;5504;47.312;11.060;2023-04-01T04:26:25;7.10;95.10
10903;DHT22;5504;47.312;11.060;2023-04-01T04:28:51;7.20;95.10
10903;DHT22;5504;47.312;11.060;2023-04-01T04:31:21;7.10;95.10
10903;DHT22;5504;47.312;11.060;2023-04-01T04:33:47;7.30;94.90
10903;DHT22;5504;47.312;11.060;2023-04-01T04:36:13;7.30;94.50
10903;DHT22;5504;47.312;11.060;2023-04-01T04:38:39;7.20;94.60
10903;DHT22;5504;47.312;11.060;2023-04-01T04:41:10;7.20;94.80
10903;DHT22;5504;47.312;11.060;2023-04-01T04:43:35;7.30;94.50
10903;DHT22;5504;47.312;11.060;2023-04-01T04:46:07;7.20;94.40
10903;DHT22;5504;47.312;11.060;2023-04-01T04:48:33;7.20;94.60
10903;DHT22;5504;47.312;11.060;2023-04-01T04:50:59;7.30;94.70
10903;DHT22;5504;47.312;11.060;2023-04-01T04:53:26;7.20;94.80
10903;DHT22;5504;47.312;11.060;2023-04-01T04:55:51;7.10;94.90
10903;DHT22;5504;47.312;11.060;2023-04-01T04:58:17;6.90;95.20
10903;DHT22;5504;47.312;11.060;2023-04-01T05:00:44;6.90;95.60
10903;DHT22;5504;47.312;11.060;2023-04-01T05:03:09;7.00;95.80
10903;DHT22;5504;47.312;11.060;2023-04-01T05:05:36;7.10;95.60
10903;DHT22;5504;47.312;11.060;2023-04-01T05:08:02;7.20;95.50
10903;DHT22;5504;47.312;11.060;2023-04-01T05:10:28;7.30;95.20
10903;DHT22;5504;47.312;11.060;2023-04-01T05:12:53;7.30;95.00
10903;DHT22;5504;47.312;11.060;2023-04-01T05:15:19;7.20;95.10
10903;DHT22;5504;47.312;11.060;2023-04-01T05:17:45;7.40;95.20
10903;DHT22;5504;47.312;11.060;2023-04-01T05:20:13;7.30;95.20
10903;DHT22;5504;47.312;11.060;2023-04-01T05:22:39;7.30;95.50
10903;DHT22;5504;47.312;11.060;2023-04-01T05:25:05;7.30;95.10
10903;DHT22;5504;47.312;11.060;2023-04-01T05:27:31;7.30;95.10
10903;DHT22;5504;47.312;11.060;2023-04-01T05:29:57;7.20;95.20
10903;DHT22;5504;47.312;11.060;2023-04-01T05:32:23;7.30;95.30
10903;DHT22;5504;47.312;11.060;2023-04-01T05:34:51;7.50;95.00
10903;DHT22;5504;47.312;11.060;2023-04-01T05:37:17;7.60;94.70
10903;DHT22;5504;47.312;11.060;2023-04-01T05:39:43;7.50;94.70
10903;DHT22;5504;47.312;11.060;2023-04-01T05:42:09;7.40;94.70
10903;DHT22;5504;47.312;11.060;2023-04-01T05:44:35;7.20;95.20
10903;DHT22;5504;47.312;11.060;2023-04-01T05:47:02;7.20;95.70
10903;DHT22;5504;47.312;11.060;2023-04-01T05:49:28;7.30;95.80
10903;DHT22;5504;47.312;11.060;2023-04-01T05:51:54;7.30;95.80
10903;DHT22;5504;47.312;11.060;2023-04-01T05:54:20;7.20;96.00
10903;DHT22;5504;47.312;11.060;2023-04-01T05:56:45;7.10;96.00
10903;DHT22;5504;47.312;11.060;2023-04-01T05:59:12;7.10;96.00
10903;DHT22;5504;47.312;11.060;2023-04-01T06:01:38;7.30;95.80
10903;DHT22;5504;47.312;11.060;2023-04-01T06:04:04;7.30;95.40
10903;DHT22;5504;47.312;11.060;2023-04-01T06:06:31;7.30;95.40
10903;DHT22;5504;47.312;11.060;2023-04-01T06:09:04;7.40;95.30
10903;DHT22;5504;47.312;11.060;2023-04-01T06:19:25;7.70;94.80
10903;DHT22;5504;47.312;11.060;2023-04-01T06:38:51;7.80;95.30
10903;DHT22;5504;47.312;11.060;2023-04-01T06:47:46;10.60;92.30
10903;DHT22;5504;47.312;11.060;2023-04-01T06:50:30;10.90;88.50
10903;DHT22;5504;47.312;11.060;2023-04-01T06:53:16;10.10;90.50
10903;DHT22;5504;47.312;11.060;2023-04-01T06:55:47;10.10;90.70
10903;DHT22;5504;47.312;11.060;2023-04-01T06:58:25;10.20;90.60
10903;DHT22;5504;47.312;11.060;2023-04-01T07:00:54;10.60;90.80
10903;DHT22;5504;47.312;11.060;2023-04-01T07:03:33;10.00;90.30
10903;DHT22;5504;47.312;11.060;2023-04-01T07:08:53;9.30;90.90
10903;DHT22;5504;47.312;11.060;2023-04-01T07:11:31;8.50;92.70
10903;DHT22;5504;47.312;11.060;2023-04-01T07:14:04;9.00;93.00
10903;DHT22;5504;47.312;11.060;2023-04-01T07:16:36;9.10;91.60
10903;DHT22;5504;47.312;11.060;2023-04-01T07:19:27;8.70;92.10
10903;DHT22;5504;47.312;11.060;2023-04-01T07:22:03;9.10;92.40
10903;DHT22;5504;47.312;11.060;2023-04-01T07:24:41;9.60;92.00
10903;DHT22;5504;47.312;11.060;2023-04-01T07:27:11;10.20;91.10
10903;DHT22;5504;47.312;11.060;2023-04-01T07:29:37;10.30;89.30
10903;DHT22;5504;47.312;11.060;2023-04-01T07:32:44;10.40;89.80
10903;DHT22;5504;47.312;11.060;2023-04-01T07:35:21;10.20;90.20
10903;DHT22;5504;47.312;11.060;2023-04-01T07:38:07;10.10;90.10
10903;DHT22;5504;47.312;11.060;2023-04-01T07:40:49;9.80;90.20
10903;DHT22;5504;47.312;11.060;2023-04-01T07:46:06;10.40;90.90
10903;DHT22;5504;47.312;11.060;2023-04-01T07:48:55;10.80;89.40
10903;DHT22;5504;47.312;11.060;2023-04-01T07:57:30;11.80;83.80
10903;DHT22;5504;47.312;11.060;2023-04-01T08:05:28;13.00;79.90
10903;DHT22;5504;47.312;11.060;2023-04-01T08:11:17;14.20;80.00
10903;DHT22;5504;47.312;11.060;2023-04-01T08:21:52;13.00;80.80
10903;DHT22;5504;47.312;11.060;2023-04-01T08:32:34;14.70;69.70
10903;DHT22;5504;47.312;11.060;2023-04-01T08:37:47;14.70;68.50
10903;DHT22;5504;47.312;11.060;2023-04-01T08:40:39;14.90;65.80
10903;DHT22;5504;47.312;11.060;2023-04-01T08:43:36;14.50;65.00
10903;DHT22;5504;47.312;11.060;2023-04-01T08:59:41;13.50;63.20
10903;DHT22;5504;47.312;11.060;2023-04-01T09:02:36;14.10;64.20
10903;DHT22;5504;47.312;11.060;2023-04-01T09:05:29;14.60;63.10
10903;DHT22;5504;47.312;11.060;2023-04-01T09:11:10;15.60;59.80
10903;DHT22;5504;47.312;11.060;2023-04-01T09:25:06;15.80;58.20
10903;DHT22;5504;47.312;11.060;2023-04-01T09:30:38;15.90;57.60
10903;DHT22;5504;47.312;11.060;2023-04-01T09:44:37;15.90;56.50
10903;DHT22;5504;47.312;11.060;2023-04-01T09:47:22;15.80;56.80
10903;DHT22;5504;47.312;11.060;2023-04-01T10:44:04;16.80;54.20
10903;DHT22;5504;47.312;11.060;2023-04-01T10:49:30;17.60;55.60
10903;DHT22;5504;47.312;11.060;2023-04-01T11:00:36;20.20;52.50
10903;DHT22;5504;47.312;11.060;2023-04-01T11:03:26;19.80;49.20
10903;DHT22;5504;47.312;11.060;2023-04-01T11:33:36;17.10;53.60
10903;DHT22;5504;47.312;11.060;2023-04-01T11:59:38;16.20;49.30
10903;DHT22;5504;47.312;11.060;2023-04-01T12:05:28;15.80;51.30
10903;DHT22;5504;47.312;11.060;2023-04-01T12:13:45;14.60;54.00
10903;DHT22;5504;47.312;11.060;2023-04-01T12:16:23;14.50;55.80
10903;DHT22;5504;47.312;11.060;2023-04-01T12:18:59;13.90;54.50
10903;DHT22;5504;47.312;11.060;2023-04-01T12:24:45;13.90;56.90
10903;DHT22;5504;47.312;11.060;2023-04-01T12:27:14;13.90;55.80
10903;DHT22;5504;47.312;11.060;2023-04-01T12:30:21;14.00;55.20
10903;DHT22;5504;47.312;11.060;2023-04-01T12:39:00;13.70;57.80
10903;DHT22;5504;47.312;11.060;2023-04-01T12:55:42;13.80;56.70
10903;DHT22;5504;47.312;11.060;2023-04-01T13:03:58;13.80;56.90
10903;DHT22;5504;47.312;11.060;2023-04-01T13:23:47;12.90;58.70
10903;DHT22;5504;47.312;11.060;2023-04-01T13:26:39;13.00;58.10
10903;DHT22;5504;47.312;11.060;2023-04-01T13:32:09;13.10;59.40
10903;DHT22;5504;47.312;11.060;2023-04-01T13:45:42;13.70;56.20
10903;DHT22;5504;47.312;11.060;2023-04-01T14:05:41;12.70;57.90
10903;DHT22;5504;47.312;11.060;2023-04-01T14:13:48;12.60;59.80
10903;DHT22;5504;47.312;11.060;2023-04-01T14:16:47;12.20;60.00
10903;DHT22;5504;47.312;11.060;2023-04-01T14:19:34;12.60;59.10
10903;DHT22;5504;47.312;11.060;2023-04-01T14:41:53;13.90;55.40
10903;DHT22;5504;47.312;11.060;2023-04-01T14:50:20;13.10;58.20
10903;DHT22;5504;47.312;11.060;2023-04-01T14:58:11;13.70;56.10
10903;DHT22;5504;47.312;11.060;2023-04-01T15:03:57;14.30;56.60
10903;DHT22;5504;47.312;11.060;2023-04-01T15:09:44;14.60;57.90
10903;DHT22;5504;47.312;11.060;2023-04-01T15:12:30;14.80;55.90
10903;DHT22;5504;47.312;11.060;2023-04-01T15:23:01;14.80;54.60
10903;DHT22;5504;47.312;11.060;2023-04-01T15:25:46;14.80;54.90
10903;DHT22;5504;47.312;11.060;2023-04-01T15:28:24;14.50;55.00
10903;DHT22;5504;47.312;11.060;2023-04-01T15:36:29;13.20;53.30
10903;DHT22;5504;47.312;11.060;2023-04-01T15:39:14;13.60;55.60
10903;DHT22;5504;47.312;11.060;2023-04-01T15:42:23;13.10;54.80
10903;DHT22;5504;47.312;11.060;2023-04-01T15:47:33;13.20;56.00
10903;DHT22;5504;47.312;11.060;2023-04-01T15:55:57;13.50;56.20
10903;DHT22;5504;47.312;11.060;2023-04-01T16:04:29;13.10;55.50
10903;DHT22;5504;47.312;11.060;2023-04-01T16:10:53;12.90;57.00
10903;DHT22;5504;47.312;11.060;2023-04-01T16:23:56;13.80;56.10
10903;DHT22;5504;47.312;11.060;2023-04-01T16:26:39;13.80;55.30
10903;DHT22;5504;47.312;11.060;2023-04-01T16:35:29;13.20;54.20
10903;DHT22;5504;47.312;11.060;2023-04-01T16:37:59;13.40;55.90
10903;DHT22;5504;47.312;11.060;2023-04-01T16:45:45;13.40;59.10
10903;DHT22;5504;47.312;11.060;2023-04-01T16:48:49;13.20;58.90
10903;DHT22;5504;47.312;11.060;2023-04-01T16:51:18;13.10;55.90
10903;DHT22;5504;47.312;11.060;2023-04-01T16:54:14;13.10;62.00
10903;DHT22;5504;47.312;11.060;2023-04-01T17:02:31;13.20;61.50
10903;DHT22;5504;47.312;11.060;2023-04-01T17:05:05;13.20;63.70
10903;DHT22;5504;47.312;11.060;2023-04-01T17:08:09;13.10;63.70
10903;DHT22;5504;47.312;11.060;2023-04-01T17:10:56;13.10;64.70
10903;DHT22;5504;47.312;11.060;2023-04-01T17:16:37;12.90;64.40
10903;DHT22;5504;47.312;11.060;2023-04-01T17:27:48;12.20;65.80
10903;DHT22;5504;47.312;11.060;2023-04-01T17:36:24;11.90;62.60
10903;DHT22;5504;47.312;11.060;2023-04-01T17:44:59;11.80;63.70
10903;DHT22;5504;47.312;11.060;2023-04-01T17:50:24;11.50;64.70
10903;DHT22;5504;47.312;11.060;2023-04-01T17:56:06;11.40;68.70
10903;DHT22;5504;47.312;11.060;2023-04-01T17:59:03;11.30;68.50
10903;DHT22;5504;47.312;11.060;2023-04-01T18:25:53;10.90;72.10
10903;DHT22;5504;47.312;11.060;2023-04-01T18:33:40;10.90;70.90
10903;DHT22;5504;47.312;11.060;2023-04-01T18:36:22;10.90;71.90
10903;DHT22;5504;47.312;11.060;2023-04-01T18:39:00;10.80;71.00
10903;DHT22;5504;47.312;11.060;2023-04-01T18:41:34;10.80;67.50
10903;DHT22;5504;47.312;11.060;2023-04-01T18:47:05;10.80;65.70
10903;DHT22;5504;47.312;11.060;2023-04-01T18:49:52;10.80;69.70
10903;DHT22;5504;47.312;11.060;2023-04-01T18:52:41;10.50;73.40
10903;DHT22;5504;47.312;11.060;2023-04-01T18:58:05;10.40;73.30
10903;DHT22;5504;47.312;11.060;2023-04-01T19:00:38;10.20;74.50
10903;DHT22;5504;47.312;11.060;2023-04-01T19:03:21;10.40;74.70
10903;DHT22;5504;47.312;11.060;2023-04-01T19:05:51;10.40;73.80
10903;DHT22;5504;47.312;11.060;2023-04-01T19:08:35;10.30;72.00
10903;DHT22;5504;47.312;11.060;2023-04-01T19:14:11;10.20;70.30
10903;DHT22;5504;47.312;11.060;2023-04-01T19:21:57;10.30;65.30
10903;DHT22;5504;47.312;11.060;2023-04-01T19:27:35;10.40;64.00
10903;DHT22;5504;47.312;11.060;2023-04-01T19:35:43;10.30;64.30
10903;DHT22;5504;47.312;11.060;2023-04-01T19:38:37;10.30;65.70
10903;DHT22;5504;47.312;11.060;2023-04-01T19:41:31;10.30;64.80
10903;DHT22;5504;47.312;11.060;2023-04-01T19:44:25;10.30;65.50
10903;DHT22;5504;47.312;11.060;2023-04-01T19:49:42;10.30;65.20
10903;DHT22;5504;47.312;11.060;2023-04-01T19:52:31;10.40;65.30
10903;DHT22;5504;47.312;11.060;2023-04-01T19:55:37;10.40;65.40
10903;DHT22;5504;47.312;11.060;2023-04-01T19:58:26;10.40;65.50
10903;DHT22;5504;47.312;11.060;2023-04-01T20:00:58;10.40;70.60
10903;DHT22;5504;47.312;11.060;2023-04-01T20:03:47;10.20;73.70
10903;DHT22;5504;47.312;11.060;2023-04-01T20:06:35;10.10;74.10
10903;DHT22;5504;47.312;11.060;2023-04-01T20:11:59;9.90;73.00
10903;DHT22;5504;47.312;11.060;2023-04-01T20:14:51;9.80;72.80
10903;DHT22;5504;47.312;11.060;2023-04-01T20:17:31;9.70;74.50
10903;DHT22;5504;47.312;11.060;2023-04-01T20:31:00;8.80;76.40
10903;DHT22;5504;47.312;11.060;2023-04-01T20:42:56;8.60;78.20
10903;DHT22;5504;47.312;11.060;2023-04-01T20:51:03;8.40;78.00
10903;DHT22;5504;47.312;11.060;2023-04-01T20:53:36;8.40;78.70
10903;DHT22;5504;47.312;11.060;2023-04-01T20:58:47;8.40;79.40
10903;DHT22;5504;47.312;11.060;2023-04-01T21:09:51;8.50;79.50
10903;DHT22;5504;47.312;11.060;2023-04-01T21:21:03;8.60;79.00
10903;DHT22;5504;47.312;11.060;2023-04-01T21:26:34;8.80;78.60
10903;DHT22;5504;47.312;11.060;2023-04-01T21:32:53;8.60;79.00
10903;DHT22;5504;47.312;11.060;2023-04-01T22:02:39;8.60;80.20
10903;DHT22;5504;47.312;11.060;2023-04-01T22:05:18;8.60;80.10
10903;DHT22;5504;47.312;11.060;2023-04-01T22:10:54;8.80;77.90
10903;DHT22;5504;47.312;11.060;2023-04-01T22:19:13;8.40;78.70
10903;DHT22;5504;47.312;11.060;2023-04-01T22:21:52;8.40;79.20
10903;DHT22;5504;47.312;11.060;2023-04-01T22:27:43;8.20;79.80
10903;DHT22;5504;47.312;11.060;2023-04-01T22:30:28;8.20;80.10
10903;DHT22;5504;47.312;11.060;2023-04-01T22:33:13;8.30;79.30
10903;DHT22;5504;47.312;11.060;2023-04-01T22:38:46;8.20;79.60
10903;DHT22;5504;47.312;11.060;2023-04-01T22:41:49;8.10;80.90
10903;DHT22;5504;47.312;11.060;2023-04-01T22:44:58;7.60;82.00
10903;DHT22;5504;47.312;11.060;2023-04-01T22:47:50;7.50;82.60
10903;DHT22;5504;47.312;11.060;2023-04-01T22:53:15;7.80;83.20
10903;DHT22;5504;47.312;11.060;2023-04-01T22:55:45;8.00;82.10
10903;DHT22;5504;47.312;11.060;2023-04-01T22:58:34;8.10;82.00
10903;DHT22;5504;47.312;11.060;2023-04-01T23:01:24;8.10;81.20
10903;DHT22;5504;47.312;11.060;2023-04-01T23:03:51;7.80;82.80
10903;DHT22;5504;47.312;11.060;2023-04-01T23:06:27;7.70;83.00
10903;DHT22;5504;47.312;11.060;2023-04-01T23:11:33;7.60;83.40
10903;DHT22;5504;47.312;11.060;2023-04-01T23:16:59;7.60;83.80
10903;DHT22;5504;47.312;11.060;2023-04-01T23:19:41;7.70;83.70
10903;DHT22;5504;47.312;11.060;2023-04-01T23:24:55;7.70;83.70
10903;DHT22;5504;47.312;11.060;2023-04-01T23:27:40;7.70;82.70
10903;DHT22;5504;47.312;11.060;2023-04-01T23:33:20;7.50;83.80
10903;DHT22;5504;47.312;11.060;2023-04-01T23:35:58;7.20;84.40
10903;DHT22;5504;47.312;11.060;2023-04-01T23:38:41;7.30;84.10
10903;DHT22;5504;47.312;11.060;2023-04-01T23:41:27;7.20;84.70
10903;DHT22;5504;47.312;11.060;2023-04-01T23:44:15;7.20;85.60
10903;DHT22;5504;47.312;11.060;2023-04-01T23:46:44;7.20;85.50
10903;DHT22;5504;47.312;11.060;2023-04-01T23:49:19;7.10;85.80
10903;DHT22;5504;47.312;11.060;2023-04-01T23:52:14;7.30;85.90
10903;DHT22;5504;47.312;11.060;2023-04-01T23:54:42;7.50;85.50
10903;DHT22;5504;47.312;11.060;2023-04-01T23:57:13;7.60;84.10
10903;DHT22;5504;47.312;11.060;2023-04-01T23:59:41;7.60;84.00
